createdAt,value
2023-01-13T00:00:27.741Z,99427.09
2023-01-13T00:02:55.362Z,99425.16
2023-01-13T00:05:23.028Z,99427.91
2023-01-13T00:07:50.649Z,99433.41
2023-01-13T00:10:19.767Z,99427.53
2023-01-13T00:12:47.429Z,99416.91
2023-01-13T00:15:15.024Z,99417.72
2023-01-13T00:17:42.637Z,99422.81
2023-01-13T00:20:11.688Z,99412.59
2023-01-13T00:22:39.320Z,99405.53
2023-01-13T00:25:07.593Z,99402.34
2023-01-13T00:27:36.606Z,99403.19
2023-01-13T00:30:05.489Z,99409.84
2023-01-13T00:32:33.467Z,99401.59
2023-01-13T00:35:01.479Z,99399.59
2023-01-13T00:37:29.197Z,99401.97
2023-01-13T00:39:57.701Z,99404.72
2023-01-13T00:42:42.952Z,99403.53
2023-01-13T00:45:12.333Z,99394.13
2023-01-13T00:47:39.971Z,99393.31
2023-01-13T00:50:08.155Z,99400.38
2023-01-13T00:52:35.787Z,99374.84
2023-01-13T00:55:03.916Z,99379.94
2023-01-13T00:57:31.544Z,99373.28
2023-01-13T00:59:59.251Z,99369.31
2023-01-13T01:02:28.220Z,99362.25
2023-01-13T01:04:55.830Z,99365.03
2023-01-13T01:07:23.470Z,99357.97
2023-01-13T01:09:51.097Z,99349.25
2023-01-13T01:12:18.746Z,99347.69
2023-01-13T01:14:46.604Z,99345.78
2023-01-13T01:17:14.356Z,99352.09
2023-01-13T01:19:43.372Z,99358.72
2023-01-13T01:22:11.167Z,99348.09
2023-01-13T01:24:38.741Z,99356.00
2023-01-13T01:27:06.358Z,99352.47
2023-01-13T01:29:33.959Z,99347.69
2023-01-13T01:32:01.576Z,99356.78
2023-01-13T01:34:29.870Z,99348.13
2023-01-13T01:36:58.777Z,99362.69
2023-01-13T01:39:26.672Z,99360.28
2023-01-13T01:42:20.624Z,99356.38
2023-01-13T01:45:02.680Z,99353.25
2023-01-13T01:47:33.280Z,99344.22
2023-01-13T01:50:03.712Z,99335.16
2023-01-13T01:52:37.841Z,99331.25
2023-01-13T01:55:09.702Z,99337.50
2023-01-13T01:57:41.657Z,99332.44
2023-01-13T02:00:10.992Z,99332.44
2023-01-13T02:02:44.465Z,99326.50
2023-01-13T02:05:12.426Z,99335.94
2023-01-13T02:07:44.298Z,99332.44
2023-01-13T02:10:14.729Z,99342.63
2023-01-13T02:12:44.700Z,99333.56
2023-01-13T02:15:14.973Z,99318.66
2023-01-13T02:18:10.239Z,99331.19
2023-01-13T02:21:00.568Z,99324.53
2023-01-13T02:24:21.813Z,99321.78
2023-01-13T02:27:13.944Z,99308.03
2023-01-13T02:30:15.409Z,99302.53
2023-01-13T02:32:53.477Z,99302.94
2023-01-13T02:35:27.181Z,99314.31
2023-01-13T02:37:57.688Z,99305.66
2023-01-13T02:40:28.240Z,99300.97
2023-01-13T02:43:20.469Z,99301.34
2023-01-13T02:45:53.678Z,99245.13
2023-01-13T02:48:24.584Z,99282.09
2023-01-13T02:51:02.243Z,99283.25
2023-01-13T02:53:34.974Z,99277.00
2023-01-13T02:56:05.871Z,99275.81
2023-01-13T02:58:36.700Z,99250.66
2023-01-13T03:01:06.206Z,99282.88
2023-01-13T03:03:33.932Z,99273.06
2023-01-13T03:06:14.050Z,99271.84
2023-01-13T03:08:47.663Z,99279.34
2023-01-13T03:11:17.084Z,99273.44
2023-01-13T03:14:09.188Z,99269.91
2023-01-13T03:16:57.503Z,99259.72
2023-01-13T03:19:35.340Z,99266.41
2023-01-13T03:22:20.546Z,99265.59
2023-01-13T03:24:53.996Z,99262.84
2023-01-13T03:27:27.534Z,99264.44
2023-01-13T03:30:00.081Z,99252.66
2023-01-13T03:32:33.407Z,99257.34
2023-01-13T03:35:06.076Z,99251.47
2023-01-13T03:37:38.702Z,99258.53
2023-01-13T03:40:11.870Z,99256.19
2023-01-13T03:43:02.763Z,99256.97
2023-01-13T03:45:32.008Z,99243.19
2023-01-13T03:48:02.671Z,99263.63
2023-01-13T03:50:36.783Z,99255.00
2023-01-13T03:53:08.298Z,99247.94
2023-01-13T03:55:39.173Z,99250.28
2023-01-13T03:58:14.327Z,99246.75
2023-01-13T04:00:48.645Z,99243.63
2023-01-13T04:03:25.092Z,99240.84
2023-01-13T04:05:58.857Z,99237.72
2023-01-13T04:08:29.490Z,99227.50
2023-01-13T04:11:03.032Z,99222.38
2023-01-13T04:13:36.602Z,99224.34
2023-01-13T04:16:06.974Z,99227.50
2023-01-13T04:18:38.492Z,99234.59
2023-01-13T04:21:07.529Z,99220.44
2023-01-13T04:23:35.320Z,99196.88
2023-01-13T04:26:03.024Z,99229.88
2023-01-13T04:28:30.735Z,99208.31
2023-01-13T04:30:58.389Z,99191.41
2023-01-13T04:33:26.063Z,99220.47
2023-01-13T04:35:55.237Z,99222.03
2023-01-13T04:38:23.099Z,99221.28
2023-01-13T04:40:50.773Z,99220.09
2023-01-13T04:43:18.416Z,99212.63
2023-01-13T04:45:46.044Z,99220.88
2023-01-13T04:48:14.155Z,99223.63
2023-01-13T04:50:42.749Z,99222.84
2023-01-13T04:53:11.852Z,99215.38
2023-01-13T04:55:39.569Z,99216.16
2023-01-13T04:58:09.016Z,99212.63
2023-01-13T05:00:37.301Z,99204.78
2023-01-13T05:03:05.132Z,99204.78
2023-01-13T05:05:33.349Z,99206.72
2023-01-13T05:08:01.236Z,99206.75
2023-01-13T05:10:30.179Z,99193.00
2023-01-13T05:13:15.580Z,99193.38
2023-01-13T05:16:01.500Z,99200.06
2023-01-13T05:18:31.598Z,99185.94
2023-01-13T05:20:59.285Z,99190.66
2023-01-13T05:23:44.687Z,99188.28
2023-01-13T05:26:13.684Z,99190.28
2023-01-13T05:28:41.378Z,99184.75
2023-01-13T05:31:09.111Z,99179.66
2023-01-13T05:33:36.831Z,99192.63
2023-01-13T05:36:05.785Z,99180.81
2023-01-13T05:38:33.459Z,99181.22
2023-01-13T05:41:18.684Z,99189.47
2023-01-13T05:43:47.915Z,99179.66
2023-01-13T05:46:17.630Z,99169.44
2023-01-13T05:48:46.035Z,99180.44
2023-01-13T05:51:14.536Z,99165.53
2023-01-13T05:53:42.351Z,99180.44
2023-01-13T05:56:11.283Z,99182.78
2023-01-13T05:58:39.163Z,99182.38
2023-01-13T06:01:10.087Z,99189.47
2023-01-13T06:03:38.659Z,99182.81
2023-01-13T06:06:08.800Z,99188.66
2023-01-13T06:08:39.455Z,99181.94
2023-01-13T06:11:07.424Z,99192.22
2023-01-13T06:13:35.093Z,99212.63
2023-01-13T06:16:02.872Z,99202.44
2023-01-13T06:18:32.037Z,99213.81
2023-01-13T06:20:59.853Z,99213.41
2023-01-13T06:23:28.033Z,99207.13
2023-01-13T06:26:04.996Z,99209.81
2023-01-13T06:28:33.244Z,99218.09
2023-01-13T06:31:04.182Z,99216.84
2023-01-13T06:33:37.980Z,99219.53
2023-01-13T06:36:11.086Z,99210.16
2023-01-13T06:38:42.198Z,99210.91
2023-01-13T06:41:10.065Z,99210.53
2023-01-13T06:43:38.396Z,99213.28
2023-01-13T06:46:06.441Z,99227.41
2023-01-13T06:48:35.937Z,99228.16
2023-01-13T06:51:04.271Z,99242.22
2023-01-13T06:53:32.039Z,99275.91
2023-01-13T06:56:00.051Z,99285.25
2023-01-13T06:58:27.974Z,99275.03
2023-01-13T07:00:55.708Z,99278.13
2023-01-13T07:03:23.390Z,99276.63
2023-01-13T07:05:57.428Z,99266.09
2023-01-13T07:08:25.980Z,99267.31
2023-01-13T07:10:54.144Z,99270.38
2023-01-13T07:13:40.111Z,99263.38
2023-01-13T07:16:09.663Z,99264.94
2023-01-13T07:18:37.891Z,99253.94
2023-01-13T07:21:09.100Z,99209.09
2023-01-13T07:23:38.236Z,99234.63
2023-01-13T07:26:07.201Z,99275.03
2023-01-13T07:28:35.082Z,99277.47
2023-01-13T07:31:02.727Z,99284.06
2023-01-13T07:33:32.885Z,99297.00
2023-01-13T07:36:03.029Z,99304.91
2023-01-13T07:38:33.627Z,99300.44
2023-01-13T07:41:22.749Z,99282.44
2023-01-13T07:43:50.288Z,99261.63
2023-01-13T07:46:18.270Z,99296.13
2023-01-13T07:48:47.848Z,99307.13
2023-01-13T07:51:15.690Z,99317.38
2023-01-13T07:53:45.082Z,99303.28
2023-01-13T07:56:12.756Z,99284.06
2023-01-13T07:58:40.540Z,99321.66
2023-01-13T08:01:09.701Z,99323.19
2023-01-13T08:03:37.479Z,99313.41
2023-01-13T08:06:06.050Z,99288.34
2023-01-13T08:08:34.023Z,99294.94
2023-01-13T08:11:04.827Z,99314.16
2023-01-13T08:13:32.792Z,99329.72
2023-01-13T08:16:02.571Z,99351.22
2023-01-13T08:18:32.017Z,99370.13
2023-01-13T08:21:03.280Z,99381.81
2023-01-13T08:23:31.245Z,99382.94
2023-01-13T08:26:01.307Z,99389.66
2023-01-13T08:28:31.082Z,99394.38
2023-01-13T08:31:00.614Z,99388.53
2023-01-13T08:33:28.803Z,99402.28
2023-01-13T08:35:56.644Z,99395.66
2023-01-13T08:38:24.985Z,99406.63
2023-01-13T08:40:52.908Z,99414.34
2023-01-13T08:43:20.587Z,99422.25
2023-01-13T08:45:58.209Z,99428.81
2023-01-13T08:48:26.353Z,99435.50
2023-01-13T08:50:54.617Z,99428.03
2023-01-13T08:53:22.268Z,99429.59
2023-01-13T08:55:49.933Z,99421.78
2023-01-13T08:58:17.604Z,99434.00
2023-01-13T09:00:45.784Z,99426.22
2023-01-13T09:03:14.759Z,99429.31
2023-01-13T09:05:42.468Z,99432.13
2023-01-13T09:08:10.203Z,99437.56
2023-01-13T09:10:40.276Z,99446.16
2023-01-13T09:13:13.047Z,99443.81
2023-01-13T09:15:42.559Z,99436.50
2023-01-13T09:18:10.609Z,99442.69
2023-01-13T09:20:40.033Z,99454.97
2023-01-13T09:23:10.743Z,99461.34
2023-01-13T09:25:39.122Z,99465.66
2023-01-13T09:28:08.640Z,99465.81
2023-01-13T09:30:38.184Z,99459.50
2023-01-13T09:33:23.518Z,99455.13
2023-01-13T09:35:52.554Z,99461.34
2023-01-13T09:38:20.448Z,99464.91
2023-01-13T09:40:49.971Z,99472.28
2023-01-13T09:43:39.176Z,99468.47
2023-01-13T09:46:33.988Z,99478.41
2023-01-13T09:49:03.645Z,99461.19
2023-01-13T09:51:37.677Z,99440.44
2023-01-13T09:54:13.501Z,99476.69
2023-01-13T09:56:42.170Z,99478.63
2023-01-13T09:59:12.121Z,99472.41
2023-01-13T10:01:46.301Z,99474.63
2023-01-13T10:04:16.185Z,99476.97
2023-01-13T10:06:51.106Z,99486.41
2023-01-13T10:09:26.776Z,99492.31
2023-01-13T10:12:16.403Z,99467.25
2023-01-13T10:14:56.265Z,99497.94
2023-01-13T10:17:31.529Z,99490.84
2023-01-13T10:20:10.116Z,99490.38
2023-01-13T10:22:50.287Z,99457.00
2023-01-13T10:25:36.941Z,99472.78
2023-01-13T10:28:11.133Z,99470.41
2023-01-13T10:30:41.359Z,99468.00
2023-01-13T10:33:13.402Z,99472.00
2023-01-13T10:35:56.565Z,99462.91
2023-01-13T10:38:28.937Z,99470.41
2023-01-13T10:40:58.941Z,99443.66
2023-01-13T10:43:27.889Z,99463.03
2023-01-13T10:46:01.603Z,99469.25
2023-01-13T10:48:38.600Z,99458.66
2023-01-13T10:51:20.677Z,99465.38
2023-01-13T10:53:57.269Z,99435.41
2023-01-13T10:56:28.641Z,99465.31
2023-01-13T10:59:18.464Z,99472.78
2023-01-13T11:01:59.664Z,99460.94
2023-01-13T11:04:31.321Z,99474.63
2023-01-13T11:06:59.673Z,99464.34
2023-01-13T11:09:30.945Z,99460.41
2023-01-13T11:12:00.176Z,99471.44
2023-01-13T11:14:39.245Z,99454.41
2023-01-13T11:17:33.428Z,99457.91
2023-01-13T11:20:08.017Z,99471.69
2023-01-13T11:22:40.922Z,99476.16
2023-01-13T11:25:17.258Z,99482.19
2023-01-13T11:27:48.976Z,99485.03
2023-01-13T11:30:32.292Z,99481.94
2023-01-13T11:33:25.836Z,99483.88
2023-01-13T11:36:04.277Z,99485.03
2023-01-13T11:38:38.853Z,99502.78
2023-01-13T11:41:13.782Z,99490.97
2023-01-13T11:43:47.362Z,99490.25
2023-01-13T11:46:15.055Z,99494.59
2023-01-13T11:48:44.001Z,99481.66
2023-01-13T11:51:27.101Z,99497.00
2023-01-13T11:54:24.324Z,99489.91
2023-01-13T11:57:25.476Z,99505.28
2023-01-13T12:00:12.991Z,99508.41
2023-01-13T12:02:57.949Z,99492.38
2023-01-13T12:05:35.251Z,99517.03
2023-01-13T12:08:18.752Z,99520.16
2023-01-13T12:11:00.129Z,99512.19
2023-01-13T12:13:41.297Z,99499.63
2023-01-13T12:16:16.827Z,99512.69
2023-01-13T12:19:07.655Z,99513.56
2023-01-13T12:21:40.002Z,99504.09
2023-01-13T12:24:18.972Z,99501.41
2023-01-13T12:26:52.700Z,99505.00
2023-01-13T12:29:28.902Z,99506.59
2023-01-13T12:31:56.973Z,99496.34
2023-01-13T12:34:34.735Z,99499.06
2023-01-13T12:37:12.964Z,99489.84
2023-01-13T12:39:49.415Z,99496.97
2023-01-13T12:42:41.324Z,99484.44
2023-01-13T12:45:23.488Z,99478.19
2023-01-13T12:47:52.742Z,99471.91
2023-01-13T12:50:41.614Z,99390.44
2023-01-13T12:53:36.204Z,99482.19
2023-01-13T12:56:44.527Z,99474.31
2023-01-13T12:59:36.991Z,99482.22
2023-01-13T13:02:38.960Z,99467.25
2023-01-13T13:05:40.392Z,99471.56
2023-01-13T13:08:15.856Z,99458.94
2023-01-13T13:10:48.647Z,99478.25
2023-01-13T13:13:39.249Z,99475.88
2023-01-13T13:16:49.688Z,99478.28
2023-01-13T13:19:57.441Z,99409.06
2023-01-13T13:22:51.119Z,99486.13
2023-01-13T13:25:28.003Z,99492.81
2023-01-13T13:28:09.028Z,99504.63
2023-01-13T13:30:38.504Z,99508.53
2023-01-13T13:33:22.164Z,99514.06
2023-01-13T13:36:08.300Z,99516.03
2023-01-13T13:39:12.444Z,99524.69
2023-01-13T13:42:03.272Z,99523.06
2023-01-13T13:44:58.142Z,99532.44
2023-01-13T13:47:25.859Z,99532.78
2023-01-13T13:49:54.882Z,99537.19
2023-01-13T13:52:26.496Z,99539.97
2023-01-13T13:54:59.103Z,99553.97
2023-01-13T13:57:34.228Z,99549.44
2023-01-13T14:00:07.338Z,99547.09
2023-01-13T14:02:39.853Z,99556.94
2023-01-13T14:05:09.872Z,99592.72
2023-01-13T14:07:44.810Z,99531.66
2023-01-13T14:10:21.027Z,99570.59
2023-01-13T14:12:48.795Z,99575.13
2023-01-13T14:15:34.987Z,99570.97
2023-01-13T14:18:05.292Z,99576.28
2023-01-13T14:20:34.504Z,99594.09
2023-01-13T14:23:05.169Z,99604.31
2023-01-13T14:25:38.280Z,99609.63
2023-01-13T14:28:19.568Z,99611.06
2023-01-13T14:30:47.970Z,99619.81
2023-01-13T14:33:18.403Z,99625.25
2023-01-13T14:36:05.891Z,99633.84
2023-01-13T14:38:33.670Z,99643.38
2023-01-13T14:41:16.748Z,99637.25
2023-01-13T14:43:45.585Z,99639.25
2023-01-13T14:46:14.363Z,99643.78
2023-01-13T14:48:47.027Z,99648.50
2023-01-13T14:51:22.733Z,99643.72
2023-01-13T14:53:50.996Z,99651.97
2023-01-13T14:56:55.032Z,99650.78
2023-01-13T14:59:36.938Z,99642.31
2023-01-13T15:02:37.137Z,99644.38
2023-01-13T15:05:47.499Z,99657.31
2023-01-13T15:08:37.568Z,99655.22
2023-01-13T15:11:08.350Z,99658.78
2023-01-13T15:13:49.059Z,99675.09
2023-01-13T15:16:23.763Z,99671.78
2023-01-13T15:18:51.700Z,99676.19
2023-01-13T15:21:20.632Z,99672.50
2023-01-13T15:23:48.369Z,99676.78
2023-01-13T15:26:27.307Z,99693.69
2023-01-13T15:28:58.988Z,99695.06
2023-01-13T15:31:28.253Z,99696.81
2023-01-13T15:33:55.980Z,99701.94
2023-01-13T15:36:26.865Z,99717.69
2023-01-13T15:38:54.738Z,99722.88
2023-01-13T15:41:42.814Z,99718.72
2023-01-13T15:44:31.910Z,99719.16
2023-01-13T15:47:02.602Z,99718.72
2023-01-13T15:49:35.046Z,99724.16
2023-01-13T15:52:04.101Z,99681.22
2023-01-13T15:54:32.309Z,99738.38
2023-01-13T15:57:00.011Z,99736.41
2023-01-13T15:59:29.195Z,99731.31
2023-01-13T16:01:56.890Z,99727.50
2023-01-13T16:04:24.575Z,99735.28
2023-01-13T16:06:52.217Z,99734.94
2023-01-13T16:09:19.850Z,99734.28
2023-01-13T16:11:47.565Z,99735.88
2023-01-13T16:14:15.217Z,99742.19
2023-01-13T16:16:44.245Z,99742.06
2023-01-13T16:19:13.037Z,99749.81
2023-01-13T16:21:41.105Z,99745.59
2023-01-13T16:24:08.836Z,99733.50
2023-01-13T16:26:38.759Z,99751.53
2023-01-13T16:29:07.162Z,99760.94
2023-01-13T16:31:35.541Z,99757.88
2023-01-13T16:34:05.562Z,99762.72
2023-01-13T16:36:36.357Z,99762.66
2023-01-13T16:39:04.843Z,99773.59
2023-01-13T16:41:34.337Z,99783.34
2023-01-13T16:44:05.870Z,99786.56
2023-01-13T16:46:34.073Z,99786.47
2023-01-13T16:49:05.827Z,99803.34
2023-01-13T16:51:34.252Z,99804.78
2023-01-13T16:54:01.916Z,99819.63
2023-01-13T16:56:31.310Z,99818.47
2023-01-13T16:59:01.312Z,99831.88
2023-01-13T17:01:31.293Z,99840.16
2023-01-13T17:04:00.018Z,99834.19
2023-01-13T17:06:34.161Z,99845.22
2023-01-13T17:09:03.039Z,99843.34
2023-01-13T17:11:31.323Z,99856.63
2023-01-13T17:13:59.000Z,99852.28
2023-01-13T17:16:28.097Z,99852.34
2023-01-13T17:18:56.073Z,99857.88
2023-01-13T17:21:24.235Z,99850.59
2023-01-13T17:23:53.255Z,99855.44
2023-01-13T17:26:32.235Z,99853.75
2023-01-13T17:29:01.239Z,99862.47
2023-01-13T17:31:29.516Z,99852.28
2023-01-13T17:33:57.264Z,99861.69
2023-01-13T17:36:25.688Z,99866.66
2023-01-13T17:38:55.443Z,99872.97
2023-01-13T17:41:23.221Z,99878.78
2023-01-13T17:43:50.898Z,99880.38
2023-01-13T17:46:19.707Z,99893.66
2023-01-13T17:48:47.934Z,99887.38
2023-01-13T17:51:17.490Z,99880.34
2023-01-13T17:53:45.921Z,99897.47
2023-01-13T17:56:16.843Z,99902.81
2023-01-13T17:58:45.317Z,99909.47
2023-01-13T18:01:16.529Z,99917.22
2023-01-13T18:03:44.513Z,99919.03
2023-01-13T18:06:16.880Z,99910.97
2023-01-13T18:08:44.939Z,99918.75
2023-01-13T18:11:12.582Z,99929.66
2023-01-13T18:13:42.733Z,99879.09
2023-01-13T18:16:13.814Z,99927.34
2023-01-13T18:18:43.418Z,99922.00
2023-01-13T18:21:35.727Z,99933.84
2023-01-13T18:24:20.913Z,99942.13
2023-01-13T18:27:05.889Z,99948.94
2023-01-13T18:29:34.904Z,99957.94
2023-01-13T18:32:02.540Z,99968.59
2023-01-13T18:34:30.453Z,99974.25
2023-01-13T18:36:58.050Z,99972.59
2023-01-13T18:39:25.711Z,99984.78
2023-01-13T18:42:11.284Z,99967.81
2023-01-13T18:44:40.347Z,99973.31
2023-01-13T18:47:08.064Z,99981.28
2023-01-13T18:49:35.759Z,99969.47
2023-01-13T18:52:03.629Z,99990.94
2023-01-13T18:54:31.324Z,99985.22
2023-01-13T18:57:01.394Z,99985.94
2023-01-13T18:59:29.697Z,99975.34
2023-01-13T19:01:59.145Z,99979.59
2023-01-13T19:04:26.853Z,99988.38
2023-01-13T19:07:00.120Z,99998.06
2023-01-13T19:09:29.524Z,100003.50
2023-01-13T19:11:58.367Z,100002.78
2023-01-13T19:14:37.831Z,100004.09
2023-01-13T19:17:09.432Z,100003.78
2023-01-13T19:19:40.263Z,100011.22
2023-01-13T19:22:08.595Z,100015.53
2023-01-13T19:24:36.372Z,99966.47
2023-01-13T19:27:04.104Z,100018.81
2023-01-13T19:29:33.869Z,100012.13
2023-01-13T19:32:01.778Z,100018.81
2023-01-13T19:34:31.057Z,100033.16
2023-01-13T19:36:58.916Z,100039.56
2023-01-13T19:39:26.925Z,100046.22
2023-01-13T19:42:12.164Z,100043.47
2023-01-13T19:44:57.556Z,100037.50
2023-01-13T19:47:25.447Z,99958.50
2023-01-13T19:49:54.414Z,100058.50
2023-01-13T19:52:22.104Z,100059.53
2023-01-13T19:54:49.888Z,100073.19
2023-01-13T19:57:17.515Z,100057.41
2023-01-13T19:59:45.163Z,100071.13
2023-01-13T20:02:15.789Z,100071.75
2023-01-13T20:04:45.364Z,100073.09
2023-01-13T20:07:14.560Z,100078.03
2023-01-13T20:09:44.323Z,100085.81
2023-01-13T20:12:12.627Z,100085.19
2023-01-13T20:14:41.003Z,100078.41
2023-01-13T20:17:08.816Z,100037.25
2023-01-13T20:19:36.477Z,100082.47
2023-01-13T20:22:04.117Z,100086.38
2023-01-13T20:24:33.361Z,100083.41
2023-01-13T20:27:01.995Z,100100.50
2023-01-13T20:29:30.093Z,100086.63
2023-01-13T20:31:57.826Z,100055.50
2023-01-13T20:34:25.831Z,100102.72
2023-01-13T20:36:54.064Z,100093.97
2023-01-13T20:39:25.103Z,100089.84
2023-01-13T20:42:11.615Z,100095.38
2023-01-13T20:44:39.325Z,100106.88
2023-01-13T20:47:07.486Z,100101.94
2023-01-13T20:49:36.039Z,100099.50
2023-01-13T20:52:09.045Z,100095.00
2023-01-13T20:54:36.958Z,100084.84
2023-01-13T20:57:07.868Z,100099.06
2023-01-13T20:59:35.579Z,100104.00
2023-01-13T21:02:03.575Z,100103.72
2023-01-13T21:04:31.388Z,100100.72
2023-01-13T21:06:59.053Z,100101.56
2023-01-13T21:09:27.495Z,100103.56
2023-01-13T21:12:13.160Z,100108.75
2023-01-13T21:14:59.663Z,100097.50
2023-01-13T21:17:41.369Z,100104.09
2023-01-13T21:20:11.442Z,100116.56
2023-01-13T21:22:39.190Z,100113.25
2023-01-13T21:25:08.207Z,100098.31
2023-01-13T21:27:35.924Z,100103.16
2023-01-13T21:30:07.819Z,100111.44
2023-01-13T21:32:35.461Z,100114.63
2023-01-13T21:35:03.168Z,100116.97
2023-01-13T21:37:30.989Z,100102.88
2023-01-13T21:39:58.685Z,100123.41
2023-01-13T21:42:43.944Z,100128.47
2023-01-13T21:45:30.620Z,100131.50
2023-01-13T21:47:58.255Z,100133.59
2023-01-13T21:50:28.078Z,100138.78
2023-01-13T21:52:58.164Z,100144.91
2023-01-13T21:55:28.365Z,100147.97
2023-01-13T21:57:58.171Z,100156.53
2023-01-13T22:00:29.652Z,100149.84
2023-01-13T22:02:58.428Z,100158.34
2023-01-13T22:05:27.247Z,100155.41
2023-01-13T22:07:54.939Z,100154.97
2023-01-13T22:10:25.939Z,100110.91
2023-01-13T22:12:55.061Z,100143.03
2023-01-13T22:15:26.557Z,100153.53
2023-01-13T22:17:56.200Z,100169.81
2023-01-13T22:20:24.298Z,100167.69
2023-01-13T22:22:51.924Z,100168.66
2023-01-13T22:25:20.243Z,100155.66
2023-01-13T22:27:49.126Z,100140.16
2023-01-13T22:30:21.571Z,100154.25
2023-01-13T22:32:49.989Z,100154.19
2023-01-13T22:35:19.026Z,100150.56
2023-01-13T22:37:46.702Z,100161.00
2023-01-13T22:40:14.739Z,100160.34
2023-01-13T22:42:43.752Z,100172.53
2023-01-13T22:45:13.836Z,100171.81
2023-01-13T22:47:41.977Z,100174.34
2023-01-13T22:50:12.424Z,100178.94
2023-01-13T22:52:41.395Z,100180.13
2023-01-13T22:55:09.792Z,100190.94
2023-01-13T22:57:47.266Z,100175.38
2023-01-13T23:00:18.720Z,100186.13
2023-01-13T23:02:46.713Z,100190.19
2023-01-13T23:05:14.646Z,100194.78
2023-01-13T23:07:43.613Z,100198.88
2023-01-13T23:10:12.331Z,100198.72
2023-01-13T23:12:40.158Z,100193.31
2023-01-13T23:15:08.566Z,100192.97
2023-01-13T23:17:36.623Z,100199.59
2023-01-13T23:20:04.755Z,100194.72
2023-01-13T23:22:32.483Z,100197.75
2023-01-13T23:25:01.443Z,100194.72
2023-01-13T23:27:29.128Z,100206.56
2023-01-13T23:29:56.792Z,100202.69
2023-01-13T23:32:24.440Z,100209.78
2023-01-13T23:34:52.086Z,100200.38
2023-01-13T23:37:19.687Z,100202.31
2023-01-13T23:39:47.286Z,100195.09
2023-01-13T23:42:16.248Z,100200.31
2023-01-13T23:44:43.912Z,100195.19
2023-01-13T23:47:12.526Z,100192.72
2023-01-13T23:49:40.822Z,100194.38
2023-01-13T23:52:08.514Z,100202.88
2023-01-13T23:54:36.322Z,100203.22
2023-01-13T23:57:04.011Z,100198.63
2023-01-13T23:59:33.069Z,100202.88
